Time;durP1;ratioP1;P1;durP2;ratioP2;P2;SDS_P1;SDS_P2;PMS_P1;PMS_P2;Temp;Humidity;BMP_temperature;BMP_pressure;BME280_temperature;BME280_humidity;BME280_pressure;Samples;Min_cycle;Max_cycle;Signal;HPM_P1;HPM_P2
2022/10/12 00:01:15;;;;;;;;;;;;;;;4.41;45.33;96282.22;4966831;28;20140;-76
2022/10/12 00:03:40;;;;;;;;;;;;;;;4.44;45.10;96285.47;4967495;28;19993;-76
2022/10/12 00:06:09;;;;;;;;;;;;;;;4.28;44.73;96282.34;4967306;28;20338;-77
2022/10/12 00:08:35;;;;;;;;;;;;;;;4.28;45.64;96292.91;4966976;28;19992;-77
2022/10/12 00:11:00;;;;;;;;;;;;;;;4.23;45.15;96292.44;4968584;28;20077;-77
2022/10/12 00:13:25;;;;;;;;;;;;;;;4.31;45.13;96293.53;4982692;28;20002;-77
2022/10/12 00:15:51;;;;;;;;;;;;;;;4.40;45.38;96289.31;4966991;28;19972;-75
2022/10/12 00:18:16;;;;;;;;;;;;;;;4.40;45.65;96286.69;4982045;28;19965;-75
2022/10/12 00:20:41;;;;;;;;;;;;;;;4.43;45.32;96282.97;4982604;28;20438;-76
2022/10/12 00:23:07;;;;;;;;;;;;;;;4.50;44.46;96280.66;4967152;28;19978;-76
2022/10/12 00:25:41;;;;;;;;;;;;;;;4.38;45.00;96291.22;4984475;28;20019;-76
2022/10/12 00:28:06;;;;;;;;;;;;;;;4.39;45.47;96289.44;5000700;28;19984;-76
2022/10/12 00:30:32;;;;;;;;;;;;;;;4.35;44.95;96283.56;4984240;28;19969;-76
2022/10/12 00:32:57;;;;;;;;;;;;;;;4.36;45.21;96287.88;4982787;28;19997;-76
2022/10/12 00:35:22;;;;;;;;;;;;;;;4.00;45.93;96290.66;4967347;28;19974;-76
2022/10/12 00:37:52;;;;;;;;;;;;;;;3.98;45.87;96283.84;4982335;28;19997;-77
2022/10/12 00:40:17;;;;;;;;;;;;;;;3.94;46.48;96288.50;4965664;28;20080;-77
2022/10/12 00:42:42;;;;;;;;;;;;;;;3.96;46.82;96281.31;4983088;28;20065;-77
2022/10/12 00:45:08;;;;;;;;;;;;;;;3.67;47.25;96285.25;4982711;28;19998;-77
2022/10/12 00:48:07;;;;;;;;;;;;;;;3.77;47.71;96285.38;4983598;28;19972;-76
2022/10/12 00:50:33;;;;;;;;;;;;;;;3.77;47.14;96287.16;5000744;28;20432;-76
2022/10/12 00:53:01;;;;;;;;;;;;;;;3.75;47.14;96289.94;4982692;28;20001;-77
2022/10/12 00:55:27;;;;;;;;;;;;;;;3.64;47.14;96295.19;4983924;28;20035;-78
2022/10/12 00:57:52;;;;;;;;;;;;;;;3.67;47.54;96289.66;4983558;28;20218;-77
2022/10/12 01:00:17;;;;;;;;;;;;;;;3.78;47.41;96297.59;4982471;28;20012;-77
2022/10/12 01:02:42;;;;;;;;;;;;;;;4.03;47.74;96289.56;4967289;28;20318;-77
2022/10/12 01:05:08;;;;;;;;;;;;;;;4.12;46.16;96291.47;4983200;28;20442;-77
2022/10/12 01:07:34;;;;;;;;;;;;;;;4.27;46.27;96291.25;5000897;28;20068;-77
2022/10/12 01:09:59;;;;;;;;;;;;;;;4.38;46.27;96293.88;4966575;28;20025;-78
2022/10/12 01:12:24;;;;;;;;;;;;;;;4.36;46.13;96294.94;4982203;28;20118;-77
2022/10/12 01:14:49;;;;;;;;;;;;;;;4.23;46.38;96295.06;4968573;28;20265;-78
2022/10/12 01:17:21;;;;;;;;;;;;;;;4.14;46.37;96299.28;4982700;28;19994;-77
2022/10/12 01:19:56;;;;;;;;;;;;;;;4.22;46.30;96288.13;5000694;28;19973;-77
2022/10/12 01:22:21;;;;;;;;;;;;;;;4.27;45.95;96292.09;4999949;28;20434;-77
2022/10/12 01:24:46;;;;;;;;;;;;;;;4.36;45.56;96295.78;4982584;28;20009;-77
2022/10/12 01:27:18;;;;;;;;;;;;;;;4.37;45.91;96289.56;4982227;28;19996;-77
2022/10/12 01:29:59;;;;;;;;;;;;;;;4.38;45.56;96287.75;4997932;28;20373;-77
2022/10/12 01:32:33;;;;;;;;;;;;;;;4.39;44.99;96281.53;4982640;28;19994;-76
2022/10/12 01:35:01;;;;;;;;;;;;;;;4.36;44.69;96282.63;4982305;28;20063;-76
2022/10/12 01:37:45;;;;;;;;;;;;;;;4.23;45.30;96279.25;4982248;28;19993;-76
2022/10/12 01:52:28;;;;;;;;;;;;;;;4.11;44.59;96268.72;4999206;28;19999;-76
2022/10/12 01:55:02;;;;;;;;;;;;;;;4.12;45.36;96266.94;4981955;28;20085;-78
2022/10/12 01:57:37;;;;;;;;;;;;;;;4.07;44.92;96268.16;4982156;28;20301;-77
2022/10/12 02:00:06;;;;;;;;;;;;;;;3.97;46.54;96268.97;4979833;28;20376;-78
2022/10/12 02:02:43;;;;;;;;;;;;;;;3.90;48.08;96268.63;4982821;28;19985;-76
2022/10/12 02:05:08;;;;;;;;;;;;;;;3.72;50.52;96263.84;4999205;28;20234;-77
2022/10/12 02:07:39;;;;;;;;;;;;;;;3.79;50.77;96270.31;5000466;28;20035;-78
2022/10/12 02:10:04;;;;;;;;;;;;;;;3.90;49.84;96266.84;4982006;28;20005;-77
2022/10/12 02:12:30;;;;;;;;;;;;;;;4.07;49.01;96264.66;4981282;28;20560;-77
2022/10/12 02:14:56;;;;;;;;;;;;;;;3.87;49.87;96261.78;4982466;28;20039;-77
2022/10/12 02:17:21;;;;;;;;;;;;;;;3.95;51.14;96263.84;4981779;28;20348;-77
2022/10/12 02:19:49;;;;;;;;;;;;;;;3.98;48.87;96266.22;4999807;28;20447;-77
2022/10/12 02:22:14;;;;;;;;;;;;;;;4.06;49.21;96261.19;4981928;28;19993;-77
2022/10/12 02:24:40;;;;;;;;;;;;;;;3.80;49.33;96252.69;4964958;28;20005;-75
2022/10/12 02:27:06;;;;;;;;;;;;;;;3.86;52.22;96252.22;4979953;28;20608;-75
2022/10/12 02:29:41;;;;;;;;;;;;;;;3.98;48.70;96253.03;4964237;28;19994;-75
2022/10/12 02:32:06;;;;;;;;;;;;;;;3.96;49.83;96246.22;4980604;28;19996;-75
2022/10/12 02:34:58;;;;;;;;;;;;;;;3.65;48.71;96247.69;4982173;28;19962;-75
2022/10/12 02:37:42;;;;;;;;;;;;;;;3.82;48.67;96242.88;4976127;28;20390;-75
2022/10/12 02:40:09;;;;;;;;;;;;;;;4.02;47.45;96240.47;4998256;28;19989;-75
2022/10/12 02:42:35;;;;;;;;;;;;;;;4.07;46.39;96235.69;4981502;28;19966;-75
2022/10/12 02:45:01;;;;;;;;;;;;;;;4.09;46.13;96230.28;4964690;28;20016;-75
2022/10/12 02:47:27;;;;;;;;;;;;;;;4.06;46.16;96231.38;4979904;28;19978;-75
2022/10/12 02:49:53;;;;;;;;;;;;;;;4.03;45.94;96221.06;4980975;28;19998;-75
2022/10/12 02:52:18;;;;;;;;;;;;;;;3.98;46.16;96231.16;4964229;28;20029;-75
2022/10/12 02:54:43;;;;;;;;;;;;;;;3.89;46.12;96225.66;4999121;28;20023;-75
2022/10/12 02:57:08;;;;;;;;;;;;;;;3.94;46.29;96225.25;4981513;28;19986;-75
2022/10/12 02:59:34;;;;;;;;;;;;;;;3.64;46.71;96226.72;4998933;28;20239;-75
2022/10/12 03:01:59;;;;;;;;;;;;;;;3.73;46.70;96223.38;4980938;28;20080;-75
2022/10/12 03:04:24;;;;;;;;;;;;;;;3.75;46.00;96220.63;4980743;28;20004;-75
2022/10/12 03:06:49;;;;;;;;;;;;;;;3.68;44.69;96215.81;4963785;28;19974;-75
2022/10/12 03:09:14;;;;;;;;;;;;;;;3.70;44.99;96220.97;4999359;28;20599;-75
2022/10/12 03:11:43;;;;;;;;;;;;;;;3.66;44.71;96219.53;4998565;28;20039;-75
2022/10/12 03:14:12;;;;;;;;;;;;;;;3.62;44.53;96213.69;4998515;28;20002;-75
2022/10/12 03:16:37;;;;;;;;;;;;;;;3.60;45.29;96214.75;4980567;28;19992;-75
2022/10/12 03:19:02;;;;;;;;;;;;;;;3.60;44.73;96214.75;4999122;28;19969;-75
2022/10/12 03:21:27;;;;;;;;;;;;;;;3.57;45.27;96215.00;4999084;28;19989;-75
2022/10/12 03:23:53;;;;;;;;;;;;;;;3.52;45.31;96212.72;4981727;28;19977;-75
2022/10/12 03:26:18;;;;;;;;;;;;;;;3.52;44.58;96210.06;5004362;28;19970;-75
2022/10/12 03:28:43;;;;;;;;;;;;;;;3.49;44.44;96218.19;4999843;28;20355;-76
2022/10/12 03:31:08;;;;;;;;;;;;;;;3.42;45.31;96212.53;5002265;28;19970;-76
2022/10/12 03:33:34;;;;;;;;;;;;;;;3.39;44.89;96211.00;4984896;28;20009;-75
2022/10/12 03:35:59;;;;;;;;;;;;;;;3.33;44.62;96214.09;5001648;28;20458;-75
2022/10/12 03:38:24;;;;;;;;;;;;;;;3.37;44.85;96210.25;5003733;28;19982;-76
2022/10/12 03:40:49;;;;;;;;;;;;;;;3.30;45.12;96212.53;4983766;28;20005;-75
2022/10/12 03:43:16;;;;;;;;;;;;;;;3.12;45.58;96211.28;5002250;28;20504;-76
2022/10/12 03:45:41;;;;;;;;;;;;;;;3.03;44.68;96212.84;4983434;28;19998;-76
2022/10/12 03:48:06;;;;;;;;;;;;;;;3.02;45.68;96211.16;5001459;28;20205;-75
2022/10/12 03:50:33;;;;;;;;;;;;;;;2.98;44.99;96212.34;4983802;28;20001;-75
2022/10/12 03:52:58;;;;;;;;;;;;;;;3.00;45.66;96211.25;4984069;28;20053;-76
2022/10/12 03:55:24;;;;;;;;;;;;;;;3.03;45.29;96208.41;5001686;28;20418;-75
2022/10/12 03:57:49;;;;;;;;;;;;;;;2.97;44.93;96202.78;4984586;28;20061;-75
2022/10/12 04:00:15;;;;;;;;;;;;;;;2.94;45.40;96203.00;4999948;28;20201;-75
2022/10/12 04:02:40;;;;;;;;;;;;;;;2.91;45.42;96199.66;4966225;28;20020;-75
2022/10/12 04:05:05;;;;;;;;;;;;;;;2.86;45.30;96203.59;4966256;28;20506;-76
2022/10/12 04:07:30;;;;;;;;;;;;;;;2.81;45.94;96193.41;5002275;28;19992;-75
2022/10/12 04:09:56;;;;;;;;;;;;;;;2.79;45.55;96200.56;4983030;28;20040;-76
2022/10/12 04:12:21;;;;;;;;;;;;;;;2.75;44.96;96192.06;4983606;28;20412;-76
2022/10/12 04:14:46;;;;;;;;;;;;;;;2.77;45.94;96205.97;4983819;28;20865;-76
2022/10/12 04:17:13;;;;;;;;;;;;;;;2.69;45.48;96200.41;4983421;28;20342;-75
2022/10/12 04:19:38;;;;;;;;;;;;;;;2.64;45.61;96203.41;4983599;28;19976;-76
2022/10/12 04:22:04;;;;;;;;;;;;;;;2.62;46.29;96197.41;5000775;28;20197;-75
2022/10/12 04:24:29;;;;;;;;;;;;;;;2.76;46.91;96203.44;5000469;28;20029;-76
2022/10/12 04:26:54;;;;;;;;;;;;;;;2.75;46.06;96205.22;4983300;28;19981;-76
2022/10/12 04:29:21;;;;;;;;;;;;;;;2.78;45.79;96204.16;4982779;28;20002;-76
2022/10/12 04:31:46;;;;;;;;;;;;;;;2.67;46.52;96201.47;5001997;28;20147;-75
2022/10/12 04:34:11;;;;;;;;;;;;;;;2.62;46.58;96199.22;5000298;28;20362;-76
2022/10/12 04:36:36;;;;;;;;;;;;;;;2.66;46.42;96198.03;4999837;28;20075;-75
2022/10/12 04:39:02;;;;;;;;;;;;;;;2.68;46.30;96193.47;4999929;28;20089;-75
2022/10/12 04:41:27;;;;;;;;;;;;;;;2.63;46.41;96196.44;4968532;28;20010;-75
2022/10/12 04:43:52;;;;;;;;;;;;;;;2.64;46.83;96190.25;5000443;28;20426;-75
2022/10/12 04:46:17;;;;;;;;;;;;;;;2.69;46.11;96194.31;5001050;28;19993;-75
2022/10/12 04:48:43;;;;;;;;;;;;;;;2.74;45.89;96200.94;5000352;28;20224;-75
2022/10/12 04:51:08;;;;;;;;;;;;;;;2.75;45.38;96194.69;4999482;28;19969;-75
2022/10/12 04:53:34;;;;;;;;;;;;;;;2.78;45.04;96197.13;5000220;28;20002;-75
2022/10/12 04:56:01;;;;;;;;;;;;;;;2.82;45.49;96195.06;5000289;28;20231;-76
2022/10/12 04:58:26;;;;;;;;;;;;;;;2.78;45.80;96201.53;4982088;28;20323;-75
2022/10/12 05:00:51;;;;;;;;;;;;;;;2.76;46.07;96199.00;4964645;28;19997;-75
2022/10/12 05:03:16;;;;;;;;;;;;;;;2.77;45.55;96190.19;5000434;28;20461;-76
2022/10/12 05:05:43;;;;;;;;;;;;;;;2.72;45.06;96191.47;5001880;28;20425;-76
2022/10/12 05:08:08;;;;;;;;;;;;;;;2.68;46.03;96190.84;5001009;28;20012;-75
2022/10/12 05:10:33;;;;;;;;;;;;;;;2.70;46.43;96190.75;4984303;28;19998;-76
2022/10/12 05:12:58;;;;;;;;;;;;;;;2.75;45.64;96188.59;5001557;28;20028;-75
2022/10/12 05:15:24;;;;;;;;;;;;;;;2.73;45.28;96187.88;5001830;28;20069;-75
2022/10/12 05:17:49;;;;;;;;;;;;;;;2.72;45.52;96184.41;5001804;28;20025;-75
2022/10/12 05:20:14;;;;;;;;;;;;;;;2.71;44.92;96187.16;4983689;28;20032;-75
2022/10/12 05:22:39;;;;;;;;;;;;;;;2.75;45.20;96185.97;5002405;28;20497;-75
2022/10/12 05:25:05;;;;;;;;;;;;;;;2.73;45.50;96180.81;5001364;28;19993;-75
2022/10/12 05:27:30;;;;;;;;;;;;;;;2.68;44.97;96179.50;5001139;28;19989;-75
2022/10/12 05:29:55;;;;;;;;;;;;;;;2.67;45.44;96181.28;4983781;28;19993;-75
2022/10/12 05:32:21;;;;;;;;;;;;;;;2.74;45.16;96179.03;4968986;28;20020;-75
2022/10/12 05:34:46;;;;;;;;;;;;;;;2.83;45.54;96178.38;4983914;28;20088;-75
2022/10/12 05:37:11;;;;;;;;;;;;;;;2.91;44.47;96177.78;5001190;28;19990;-75
2022/10/12 05:39:36;;;;;;;;;;;;;;;2.89;44.91;96174.41;5002325;28;20048;-76
2022/10/12 05:42:02;;;;;;;;;;;;;;;2.85;44.78;96178.22;5002528;28;19994;-75
2022/10/12 05:44:27;;;;;;;;;;;;;;;2.86;45.39;96170.22;4983546;28;19986;-75
2022/10/12 05:46:52;;;;;;;;;;;;;;;2.91;44.66;96170.72;5001483;28;20106;-75
2022/10/12 05:49:18;;;;;;;;;;;;;;;2.90;45.04;96173.47;5001470;28;20001;-75
2022/10/12 05:51:43;;;;;;;;;;;;;;;2.88;44.87;96173.59;5002785;28;19974;-75
2022/10/12 05:54:08;;;;;;;;;;;;;;;2.88;45.49;96178.84;4965793;28;20048;-75
2022/10/12 05:56:33;;;;;;;;;;;;;;;2.98;44.67;96172.88;5001954;28;20001;-75
2022/10/12 05:58:59;;;;;;;;;;;;;;;2.99;44.90;96172.78;5001867;28;19997;-75
2022/10/12 06:01:24;;;;;;;;;;;;;;;2.98;45.52;96178.13;5001068;28;20101;-75
2022/10/12 06:03:50;;;;;;;;;;;;;;;3.04;44.83;96175.88;5002410;28;20000;-75
2022/10/12 06:06:15;;;;;;;;;;;;;;;3.16;44.67;96171.47;4983286;28;19990;-75
2022/10/12 06:08:40;;;;;;;;;;;;;;;3.21;45.15;96176.41;5000592;28;19996;-75
2022/10/12 06:11:06;;;;;;;;;;;;;;;3.26;45.78;96176.88;4983469;28;19993;-75
2022/10/12 06:13:31;;;;;;;;;;;;;;;3.29;44.96;96178.44;5001281;28;20037;-75
2022/10/12 06:15:56;;;;;;;;;;;;;;;3.40;45.16;96183.72;4967664;28;19979;-75
2022/10/12 06:18:22;;;;;;;;;;;;;;;3.56;45.41;96182.53;5001170;28;20251;-75
2022/10/12 06:20:48;;;;;;;;;;;;;;;3.59;45.22;96177.03;4982396;28;19998;-63
2022/10/12 06:23:13;;;;;;;;;;;;;;;3.68;45.56;96170.22;4997287;28;19973;-63
2022/10/12 06:25:38;;;;;;;;;;;;;;;3.78;44.85;96172.97;4998606;28;19996;-63
2022/10/12 06:28:03;;;;;;;;;;;;;;;3.87;44.90;96180.13;4999578;28;20013;-63
2022/10/12 06:30:29;;;;;;;;;;;;;;;4.00;44.95;96181.78;5001155;28;20208;-64
2022/10/12 06:32:54;;;;;;;;;;;;;;;4.09;44.10;96173.16;5000211;28;20002;-63
2022/10/12 06:35:19;;;;;;;;;;;;;;;4.22;45.03;96182.72;5000964;28;20040;-63
2022/10/12 06:37:50;;;;;;;;;;;;;;;4.31;44.86;96188.06;5000258;28;19985;-64
2022/10/12 06:40:16;;;;;;;;;;;;;;;4.40;44.63;96181.22;4998062;28;21181;-64
2022/10/12 06:42:41;;;;;;;;;;;;;;;4.44;44.83;96193.19;5001184;28;20068;-63
2022/10/12 06:45:07;;;;;;;;;;;;;;;4.49;45.76;96191.97;4996312;28;20047;-64
2022/10/12 06:47:32;;;;;;;;;;;;;;;4.64;45.87;96190.72;4999746;28;20023;-64
2022/10/12 06:49:57;;;;;;;;;;;;;;;4.74;45.56;96189.94;5001167;28;20292;-64
2022/10/12 06:52:22;;;;;;;;;;;;;;;4.95;45.52;96198.72;4992603;28;20081;-64
2022/10/12 06:54:48;;;;;;;;;;;;;;;5.07;46.06;96196.88;4992411;28;19978;-63
2022/10/12 06:57:13;;;;;;;;;;;;;;;5.22;45.36;96207.97;4995019;28;19990;-63
2022/10/12 06:59:38;;;;;;;;;;;;;;;5.33;45.58;96203.56;4995083;28;19970;-64
2022/10/12 07:02:04;;;;;;;;;;;;;;;5.44;45.16;96195.56;5003150;28;20040;-64
2022/10/12 07:04:29;;;;;;;;;;;;;;;5.58;45.71;96202.28;5001257;28;19997;-63
2022/10/12 07:06:54;;;;;;;;;;;;;;;5.64;45.21;96200.13;5004362;28;19977;-63
2022/10/12 07:09:19;;;;;;;;;;;;;;;5.54;45.34;96208.81;5001155;28;20253;-64
2022/10/12 07:11:45;;;;;;;;;;;;;;;5.52;45.99;96204.63;5002485;28;20451;-64
2022/10/12 07:14:10;;;;;;;;;;;;;;;5.68;46.91;96207.63;5003184;28;20001;-64
2022/10/12 07:16:35;;;;;;;;;;;;;;;5.84;46.46;96207.13;5002481;28;20072;-64
2022/10/12 07:19:01;;;;;;;;;;;;;;;5.98;46.59;96200.66;5003378;28;20448;-64
2022/10/12 07:21:26;;;;;;;;;;;;;;;6.22;46.24;96209.19;5001849;28;19992;-63
2022/10/12 07:23:51;;;;;;;;;;;;;;;6.23;47.15;96203.75;4998266;28;20024;-63
2022/10/12 07:26:16;;;;;;;;;;;;;;;6.38;47.07;96198.94;4983896;28;19962;-65
2022/10/12 07:28:42;;;;;;;;;;;;;;;6.62;46.36;96208.31;5002275;28;19990;-65
2022/10/12 07:31:08;;;;;;;;;;;;;;;6.96;45.74;96207.06;5000523;28;20092;-64
2022/10/12 07:33:34;;;;;;;;;;;;;;;7.16;45.45;96207.03;5002167;28;20052;-64
2022/10/12 07:35:59;;;;;;;;;;;;;;;7.40;44.86;96203.91;4999524;28;19969;-65
2022/10/12 07:38:24;;;;;;;;;;;;;;;7.65;43.85;96206.91;5002333;28;20009;-65
2022/10/12 07:40:50;;;;;;;;;;;;;;;7.90;43.48;96203.78;5000930;28;20541;-63
2022/10/12 07:43:15;;;;;;;;;;;;;;;8.19;42.64;96202.78;5000917;28;19984;-64
2022/10/12 07:45:41;;;;;;;;;;;;;;;8.46;43.12;96209.03;5001052;28;20410;-64
2022/10/12 07:48:06;;;;;;;;;;;;;;;8.67;41.72;96208.75;4998919;28;19971;-64
2022/10/12 07:50:31;;;;;;;;;;;;;;;8.97;41.97;96210.38;5000986;28;20532;-65
2022/10/12 07:52:56;;;;;;;;;;;;;;;9.16;40.50;96212.84;5000878;28;19997;-64
2022/10/12 07:55:22;;;;;;;;;;;;;;;9.36;41.98;96210.00;5000763;28;19974;-63
2022/10/12 07:57:47;;;;;;;;;;;;;;;9.62;41.88;96203.84;5002030;28;19993;-64
2022/10/12 08:00:12;;;;;;;;;;;;;;;9.84;39.53;96212.28;4997512;28;20088;-64
2022/10/12 08:02:38;;;;;;;;;;;;;;;10.01;40.49;96212.34;5001295;28;20029;-64
2022/10/12 08:05:03;;;;;;;;;;;;;;;10.27;38.62;96201.66;4999268;28;19992;-64
2022/10/12 08:07:28;;;;;;;;;;;;;;;10.48;38.99;96203.88;5002545;28;19980;-64
2022/10/12 08:09:53;;;;;;;;;;;;;;;10.47;38.87;96209.34;5000562;28;20294;-64
2022/10/12 08:12:19;;;;;;;;;;;;;;;10.68;39.53;96210.75;5000285;28;20048;-64
2022/10/12 08:14:44;;;;;;;;;;;;;;;11.19;39.01;96204.47;5000823;28;19973;-64
2022/10/12 08:17:09;;;;;;;;;;;;;;;11.20;38.63;96209.63;4998965;28;19989;-65
2022/10/12 08:19:34;;;;;;;;;;;;;;;11.60;38.60;96209.72;5001046;28;20073;-64
2022/10/12 08:22:00;;;;;;;;;;;;;;;11.68;38.76;96213.38;5001135;28;20018;-63
2022/10/12 08:24:25;;;;;;;;;;;;;;;11.10;39.66;96217.81;5000032;28;20076;-74
2022/10/12 08:26:50;;;;;;;;;;;;;;;11.42;39.23;96209.94;4983712;28;19974;-76
2022/10/12 08:29:15;;;;;;;;;;;;;;;11.59;37.89;96212.59;4999660;28;20540;-64
2022/10/12 08:31:41;;;;;;;;;;;;;;;11.93;38.66;96216.81;5001558;28;19973;-64
2022/10/12 08:34:07;;;;;;;;;;;;;;;12.38;38.48;96221.69;5000776;28;19998;-64
2022/10/12 08:36:32;;;;;;;;;;;;;;;12.35;37.96;96220.19;5001284;28;20454;-64
2022/10/12 08:39:05;;;;;;;;;;;;;;;12.16;38.24;96221.44;5000503;28;20044;-64
2022/10/12 08:41:30;;;;;;;;;;;;;;;12.74;37.82;96214.94;4983385;28;20404;-64
2022/10/12 08:43:59;;;;;;;;;;;;;;;11.18;40.94;96216.97;5002230;28;19974;-63
2022/10/12 08:46:25;;;;;;;;;;;;;;;12.13;39.28;96208.44;5002005;28;20036;-63
2022/10/12 08:49:00;;;;;;;;;;;;;;;12.83;38.19;96211.22;4982751;28;20489;-63
2022/10/12 08:51:26;;;;;;;;;;;;;;;11.44;40.39;96204.44;4998539;28;19981;-64
2022/10/12 08:53:56;;;;;;;;;;;;;;;12.71;38.20;96201.97;4983014;28;20049;-64
2022/10/12 08:56:21;;;;;;;;;;;;;;;12.42;38.44;96202.44;5001801;28;19990;-64
2022/10/12 08:58:47;;;;;;;;;;;;;;;13.01;38.21;96207.44;4982089;28;20419;-64
2022/10/12 09:01:12;;;;;;;;;;;;;;;13.20;37.91;96197.28;5000756;28;20211;-64
2022/10/12 09:03:39;;;;;;;;;;;;;;;13.60;37.09;96211.25;4999620;28;19973;-64
2022/10/12 09:06:16;;;;;;;;;;;;;;;13.38;37.34;96211.16;4981918;28;19997;-64
2022/10/12 09:08:56;;;;;;;;;;;;;;;12.72;37.89;96214.31;4982923;28;20182;-65
2022/10/12 09:11:21;;;;;;;;;;;;;;;12.96;38.11;96205.28;4983797;28;20442;-65
2022/10/12 09:13:52;;;;;;;;;;;;;;;13.06;35.68;96205.09;4997970;28;20089;-65
2022/10/12 09:16:20;;;;;;;;;;;;;;;13.77;36.77;96211.91;4981654;28;20187;-65
2022/10/12 09:18:45;;;;;;;;;;;;;;;12.69;38.44;96210.16;5001919;28;19970;-65
2022/10/12 09:21:20;;;;;;;;;;;;;;;12.86;38.59;96210.88;4985827;28;19999;-65
2022/10/12 09:23:45;;;;;;;;;;;;;;;12.92;38.67;96215.50;5001338;28;19969;-65
2022/10/12 09:26:17;;;;;;;;;;;;;;;13.21;37.98;96217.63;5000894;28;19986;-65
2022/10/12 09:28:55;;;;;;;;;;;;;;;12.78;39.25;96221.59;4998546;28;20437;-65
2022/10/12 09:31:39;;;;;;;;;;;;;;;12.27;40.72;96215.72;5001601;28;19969;-65
2022/10/12 09:34:05;;;;;;;;;;;;;;;13.69;38.24;96210.19;4999593;28;20008;-65
2022/10/12 09:36:31;;;;;;;;;;;;;;;12.70;39.77;96210.97;4982711;28;20001;-65
2022/10/12 09:38:57;;;;;;;;;;;;;;;13.10;38.79;96205.53;4983484;28;20000;-65
2022/10/12 09:41:23;;;;;;;;;;;;;;;14.05;37.67;96211.31;4985635;28;20458;-65
2022/10/12 09:43:48;;;;;;;;;;;;;;;12.76;39.24;96204.94;4998264;28;21164;-65
2022/10/12 09:46:14;;;;;;;;;;;;;;;13.54;38.48;96209.34;4982618;28;19994;-65
2022/10/12 09:48:48;;;;;;;;;;;;;;;13.72;37.58;96217.00;4980707;28;20033;-66
2022/10/12 09:51:15;;;;;;;;;;;;;;;13.93;37.52;96210.97;4978417;28;20418;-65
2022/10/12 09:53:42;;;;;;;;;;;;;;;14.20;36.94;96210.47;4982179;28;20037;-65
2022/10/12 09:56:08;;;;;;;;;;;;;;;14.47;36.18;96210.78;4983477;28;19981;-65
2022/10/12 09:58:36;;;;;;;;;;;;;;;13.98;37.06;96210.41;4995439;28;19973;-66
2022/10/12 10:01:16;;;;;;;;;;;;;;;13.74;37.62;96209.63;4998956;28;19996;-66
2022/10/12 10:03:41;;;;;;;;;;;;;;;13.50;38.42;96205.38;4996851;28;19996;-65
2022/10/12 10:06:07;;;;;;;;;;;;;;;13.89;37.72;96198.97;4999522;28;20303;-64
2022/10/12 10:08:39;;;;;;;;;;;;;;;14.19;36.83;96209.66;4997627;28;19996;-65
2022/10/12 10:11:05;;;;;;;;;;;;;;;13.41;38.15;96213.47;4998298;28;20039;-67
2022/10/12 10:13:30;;;;;;;;;;;;;;;14.56;36.43;96215.03;4980719;28;19998;-67
2022/10/12 10:16:03;;;;;;;;;;;;;;;14.94;35.07;96210.47;4973221;28;20656;-68
2022/10/12 10:18:28;;;;;;;;;;;;;;;15.66;34.93;96207.81;4999911;28;20324;-68
2022/10/12 10:20:54;;;;;;;;;;;;;;;15.98;34.27;96202.81;4999731;28;20021;-67
2022/10/12 10:23:23;;;;;;;;;;;;;;;15.96;34.03;96207.56;5002559;28;20001;-67
2022/10/12 10:25:55;;;;;;;;;;;;;;;15.81;33.88;96198.81;4982428;28;20088;-68
2022/10/12 10:28:25;;;;;;;;;;;;;;;14.82;34.47;96207.50;5002177;28;20394;-70
2022/10/12 10:30:58;;;;;;;;;;;;;;;15.40;34.82;96209.22;4981376;28;19970;-66
2022/10/12 10:33:23;;;;;;;;;;;;;;;15.72;34.24;96208.88;5000242;28;20002;-65
2022/10/12 10:35:55;;;;;;;;;;;;;;;16.14;33.99;96216.94;5005063;28;19981;-65
2022/10/12 10:38:20;;;;;;;;;;;;;;;15.26;34.12;96207.47;5003399;28;20017;-77
2022/10/12 10:40:49;;;;;;;;;;;;;;;16.07;33.43;96211.53;5004809;28;20044;-78
2022/10/12 10:43:23;;;;;;;;;;;;;;;16.47;31.96;96210.94;5005104;28;20240;-76
2022/10/12 10:45:49;;;;;;;;;;;;;;;16.69;31.84;96208.09;4986926;28;19993;-76
2022/10/12 10:48:16;;;;;;;;;;;;;;;16.60;32.33;96212.00;4986843;28;20243;-76
2022/10/12 10:50:41;;;;;;;;;;;;;;;16.93;32.24;96199.66;4987866;28;19971;-76
2022/10/12 10:53:13;;;;;;;;;;;;;;;16.99;31.59;96188.91;5003612;28;19996;-76
2022/10/12 10:55:43;;;;;;;;;;;;;;;17.01;32.32;96194.94;4987057;28;19977;-76
2022/10/12 10:58:19;;;;;;;;;;;;;;;15.37;33.96;96204.28;4986064;28;19993;-76
2022/10/12 11:00:44;;;;;;;;;;;;;;;16.60;32.62;96194.03;4986270;28;20080;-76
2022/10/12 11:03:16;;;;;;;;;;;;;;;16.64;32.71;96197.13;4986991;28;20119;-76
2022/10/12 11:05:42;;;;;;;;;;;;;;;17.10;31.55;96194.72;5004061;28;20568;-77
2022/10/12 11:08:12;;;;;;;;;;;;;;;17.69;31.18;96196.78;4985462;28;20366;-76
2022/10/12 11:10:46;;;;;;;;;;;;;;;14.92;35.32;96204.50;4986403;28;20271;-75
2022/10/12 11:13:13;;;;;;;;;;;;;;;13.69;38.07;96209.34;5001691;28;20002;-75
2022/10/12 11:15:41;;;;;;;;;;;;;;;16.48;32.85;96201.00;4986097;28;20157;-73
2022/10/12 11:18:21;;;;;;;;;;;;;;;16.74;32.21;96196.72;4971398;28;19990;-75
2022/10/12 11:20:56;;;;;;;;;;;;;;;17.09;32.10;96188.50;4986797;28;19989;-74
2022/10/12 11:23:40;;;;;;;;;;;;;;;17.35;31.34;96191.44;4970895;28;19980;-76
2022/10/12 11:26:29;;;;;;;;;;;;;;;16.98;32.08;96192.66;5004940;28;20252;-76
2022/10/12 11:28:55;;;;;;;;;;;;;;;17.15;31.61;96189.59;4969567;28;20033;-74
2022/10/12 11:31:25;;;;;;;;;;;;;;;17.52;31.08;96191.84;4986086;28;20070;-76
2022/10/12 11:33:51;;;;;;;;;;;;;;;17.43;31.43;96188.53;4970985;28;20362;-75
2022/10/12 11:36:21;;;;;;;;;;;;;;;17.15;31.46;96197.66;5005130;28;20009;-75
2022/10/12 11:38:49;;;;;;;;;;;;;;;15.31;34.93;96188.94;4972053;28;19979;-74
2022/10/12 11:41:19;;;;;;;;;;;;;;;17.05;31.80;96181.88;5003558;28;19990;-76
2022/10/12 11:43:49;;;;;;;;;;;;;;;16.88;32.06;96182.28;5005932;28;19977;-75
2022/10/12 11:46:15;;;;;;;;;;;;;;;17.50;31.59;96183.97;4986131;28;19994;-76
2022/10/12 11:48:41;;;;;;;;;;;;;;;16.83;32.14;96179.38;4988210;28;20052;-76
2022/10/12 11:51:07;;;;;;;;;;;;;;;16.75;32.47;96166.97;5004798;28;19977;-77
2022/10/12 11:53:51;;;;;;;;;;;;;;;15.71;33.83;96167.78;5005104;28;20011;-75
2022/10/12 11:56:16;;;;;;;;;;;;;;;17.36;31.85;96158.09;5006527;28;19996;-75
2022/10/12 11:58:42;;;;;;;;;;;;;;;17.36;31.22;96166.19;5008294;28;19978;-74
2022/10/12 12:01:07;;;;;;;;;;;;;;;17.18;31.73;96162.28;4988885;28;20052;-77
2022/10/12 12:03:42;;;;;;;;;;;;;;;17.34;30.87;96154.81;5003713;28;20426;-76
2022/10/12 12:06:26;;;;;;;;;;;;;;;17.30;30.57;96162.44;5007009;28;20030;-75
2022/10/12 12:08:54;;;;;;;;;;;;;;;15.82;33.65;96157.50;5006947;28;19998;-77
2022/10/12 12:11:20;;;;;;;;;;;;;;;16.49;33.28;96159.69;5005938;28;20080;-76
2022/10/12 12:13:46;;;;;;;;;;;;;;;16.03;33.67;96163.81;5006260;28;20056;-77
2022/10/12 12:16:11;;;;;;;;;;;;;;;16.97;32.21;96161.41;5005464;28;19994;-77
2022/10/12 12:18:54;;;;;;;;;;;;;;;16.67;32.38;96148.34;5004881;28;19965;-76
2022/10/12 12:21:20;;;;;;;;;;;;;;;17.00;31.53;96152.91;5004315;28;19984;-75
2022/10/12 12:23:54;;;;;;;;;;;;;;;17.26;32.12;96148.59;5005075;28;19997;-76
2022/10/12 12:26:20;;;;;;;;;;;;;;;17.98;31.43;96148.91;5007518;28;20015;-75
2022/10/12 12:28:49;;;;;;;;;;;;;;;16.56;32.67;96157.00;4989559;28;20475;-77
2022/10/12 12:31:21;;;;;;;;;;;;;;;17.23;31.88;96153.59;4969772;28;19965;-75
2022/10/12 12:33:46;;;;;;;;;;;;;;;18.05;30.65;96147.00;5005163;28;20112;-75
2022/10/12 12:36:13;;;;;;;;;;;;;;;17.03;31.46;96140.91;5003902;28;20472;-76
2022/10/12 12:38:39;;;;;;;;;;;;;;;16.87;32.18;96142.97;4986749;28;19993;-76
2022/10/12 12:41:04;;;;;;;;;;;;;;;16.57;33.20;96140.66;4986317;28;20071;-76
2022/10/12 12:43:29;;;;;;;;;;;;;;;18.45;30.21;96132.50;5004131;28;19971;-77
2022/10/12 12:45:58;;;;;;;;;;;;;;;19.79;28.13;96126.28;5003775;28;19993;-75
2022/10/12 12:48:42;;;;;;;;;;;;;;;18.69;28.45;96132.81;4970971;28;20074;-77
2022/10/12 12:51:34;;;;;;;;;;;;;;;20.41;26.63;96133.44;5003259;28;20045;-75
2022/10/12 12:54:03;;;;;;;;;;;;;;;19.43;27.03;96117.91;5000764;28;19994;-75
2022/10/12 12:56:31;;;;;;;;;;;;;;;20.03;27.12;96131.84;4986166;28;20383;-75
2022/10/12 12:59:15;;;;;;;;;;;;;;;20.09;27.36;96133.66;5004331;28;19987;-76
2022/10/12 13:01:40;;;;;;;;;;;;;;;19.04;28.56;96126.13;5003728;28;20074;-76
2022/10/12 13:04:24;;;;;;;;;;;;;;;18.44;29.09;96128.16;5004487;28;20486;-77
2022/10/12 13:07:07;;;;;;;;;;;;;;;17.08;31.99;96133.06;5004226;28;19971;-75